Time;durP1;ratioP1;P1;durP2;ratioP2;P2;SDS_P1;SDS_P2;PMS_P1;PMS_P2;Temp;Humidity;BMP_temperature;BMP_pressure;BME280_temperature;BME280_humidity;BME280_pressure;Samples;Min_cycle;Max_cycle;Signal;HPM_P1;HPM_P2
2021/12/05 00:23:31;;;;;;;;;0.00;0.00;;;;;6.11;96.16;99640.91;4720189;30;45802;-86
2021/12/05 00:33:14;;;;;;;;;0.00;0.00;;;;;5.98;95.91;99614.09;4812258;29;46111;-86
2021/12/05 01:16:31;;;;;;;;;0.00;0.00;;;;;6.06;96.47;99601.41;4825397;29;45586;-84
2021/12/05 01:18:57;;;;;;;;;0.00;0.00;;;;;6.05;96.36;99613.56;4809720;29;45052;-87
2021/12/05 01:21:25;;;;;;;;;0.00;0.00;;;;;5.83;96.40;99566.56;4827061;29;45175;-86
2021/12/05 01:24:08;;;;;;;;;0.00;0.00;;;;;6.03;96.38;99615.47;4831421;29;45451;-88
2021/12/05 01:30:04;;;;;;;;;0.00;0.00;;;;;5.83;96.08;99567.38;4832378;29;45184;-85
2021/12/05 01:32:48;;;;;;;;;1.00;0.00;;;;;6.05;96.21;99586.72;4813660;29;45527;-88
2021/12/05 01:49:53;;;;;;;;;0.00;0.00;;;;;6.00;96.11;99587.06;4778482;29;45738;-87
2021/12/05 01:57:43;;;;;;;;;0.00;0.00;;;;;5.60;96.01;99521.38;4807052;29;46235;-86
2021/12/05 02:29:28;;;;;;;;;1.00;0.00;;;;;5.38;96.04;99475.25;4769784;29;45721;-84
2021/12/05 02:31:29;;;;;;;;;0.00;0.00;;;;;5.52;96.29;99508.06;4769276;29;46146;-85
2021/12/05 02:37:00;;;;;;;;;0.25;0.00;;;;;5.49;96.37;99510.88;4769272;29;45933;-86
2021/12/05 02:42:17;;;;;;;;;0.00;0.00;;;;;5.80;96.07;99558.97;4769642;29;45776;-87
2021/12/05 02:48:04;;;;;;;;;0.00;0.00;;;;;5.74;96.13;99560.22;4769048;29;46000;-85
2021/12/05 02:50:32;;;;;;;;;0.25;0.00;;;;;5.74;96.09;99565.41;4779239;29;45823;-87
2021/12/05 02:53:10;;;;;;;;;0.00;0.00;;;;;5.60;96.24;99536.13;4789276;29;47447;-86
2021/12/05 02:55:39;;;;;;;;;0.00;0.00;;;;;5.40;96.14;99490.69;4804471;29;46541;-87
2021/12/05 02:58:33;;;;;;;;;0.00;0.00;;;;;5.71;96.12;99544.03;4788827;29;45852;-86
2021/12/05 03:03:30;;;;;;;;;0.00;0.00;;;;;5.70;96.08;99524.16;4807284;29;45506;-87
2021/12/05 03:06:06;;;;;;;;;0.00;0.00;;;;;5.48;95.86;99499.66;4809745;29;46179;-88
2021/12/05 03:08:32;;;;;;;;;0.00;0.00;;;;;5.18;96.10;99448.97;4794726;29;45677;-84
2021/12/05 03:10:59;;;;;;;;;0.00;0.00;;;;;5.64;95.85;99525.41;4809703;29;45809;-86
2021/12/05 03:13:27;;;;;;;;;0.00;0.00;;;;;5.52;96.05;99512.41;4795297;29;47418;-88
2021/12/05 03:15:56;;;;;;;;;0.00;0.00;;;;;5.26;96.13;99462.25;4809063;29;46174;-88
2021/12/05 03:18:23;;;;;;;;;0.00;0.00;;;;;5.36;95.94;99497.03;4792029;29;45781;-87
2021/12/05 03:20:49;;;;;;;;;0.00;0.00;;;;;5.41;96.07;99494.97;4792250;29;45783;-87
2021/12/05 03:23:14;;;;;;;;;0.00;0.00;;;;;5.61;96.06;99533.44;4813647;29;47292;-86
2021/12/05 03:25:40;;;;;;;;;1.00;0.00;;;;;5.60;96.36;99529.16;4810621;29;47952;-86
2021/12/05 03:28:06;;;;;;;;;0.00;0.00;;;;;5.22;96.15;99461.63;4791599;29;45553;-86
2021/12/05 03:30:32;;;;;;;;;0.00;0.00;;;;;5.52;95.87;99526.25;4806409;29;45967;-86
2021/12/05 03:32:58;;;;;;;;;0.00;0.00;;;;;5.05;96.24;99448.94;4791019;29;48432;-86
2021/12/05 03:35:28;;;;;;;;;0.00;0.00;;;;;5.53;96.26;99511.50;4791650;29;48178;-89
2021/12/05 03:37:54;;;;;;;;;0.00;0.00;;;;;5.36;96.09;99491.84;4791876;29;45867;-88
2021/12/05 03:40:24;;;;;;;;;0.00;0.00;;;;;5.41;96.05;99502.75;4792360;29;45905;-86
2021/12/05 03:42:50;;;;;;;;;0.00;0.00;;;;;5.51;96.20;99514.19;4791934;29;47288;-87
2021/12/05 03:45:23;;;;;;;;;0.00;0.00;;;;;5.12;96.24;99455.41;4794764;29;48186;-86
2021/12/05 03:47:49;;;;;;;;;0.00;0.00;;;;;5.11;96.25;99448.53;4797232;29;46020;-87
2021/12/05 03:50:15;;;;;;;;;0.00;0.00;;;;;5.25;96.27;99470.97;4796556;29;46004;-87
2021/12/05 03:52:41;;;;;;;;;0.00;0.00;;;;;5.48;96.24;99509.22;4796635;29;48704;-87
2021/12/05 03:55:11;;;;;;;;;0.00;0.00;;;;;5.35;95.84;99501.41;4798684;29;47726;-88
2021/12/05 03:57:37;;;;;;;;;0.00;0.00;;;;;5.46;96.37;99517.09;4798837;29;45727;-87
2021/12/05 04:03:26;;;;;;;;;0.00;0.00;;;;;5.45;96.21;99507.63;4813596;29;45966;-86
2021/12/05 04:05:52;;;;;;;;;0.00;0.00;;;;;5.01;96.16;99440.56;4796507;29;46992;-86
2021/12/05 04:08:21;;;;;;;;;0.00;0.00;;;;;5.42;96.14;99515.66;4797084;29;45671;-84
2021/12/05 04:10:53;;;;;;;;;0.00;0.00;;;;;5.17;96.40;99468.06;4813738;29;45715;-87
2021/12/05 04:13:19;;;;;;;;;0.00;0.00;;;;;4.94;95.96;99438.47;4812278;29;47530;-87
2021/12/05 04:15:46;;;;;;;;;0.00;0.00;;;;;4.79;96.19;99419.56;4792965;29;48377;-86
2021/12/05 04:18:12;;;;;;;;;0.00;0.00;;;;;5.37;96.08;99522.09;4791915;29;45779;-84
2021/12/05 04:20:37;;;;;;;;;0.00;0.00;;;;;5.15;96.06;99481.16;4808312;29;45578;-85
2021/12/05 04:23:04;;;;;;;;;0.00;0.00;;;;;5.26;96.09;99514.19;4812614;29;45608;-88
2021/12/05 04:25:34;;;;;;;;;0.00;0.00;;;;;5.15;96.41;99473.34;4793833;29;46352;-87
2021/12/05 04:27:59;;;;;;;;;0.00;0.00;;;;;5.05;95.63;99472.31;4795122;29;45617;-86
2021/12/05 04:33:49;;;;;;;;;0.00;0.00;;;;;5.24;96.52;99506.47;4816360;29;45762;-87
2021/12/05 04:36:14;;;;;;;;;0.00;0.00;;;;;5.22;96.05;99510.97;4800399;29;47469;-87
2021/12/05 04:38:40;;;;;;;;;0.00;0.00;;;;;4.85;95.84;99455.47;4810609;29;45648;-86
2021/12/05 04:41:07;;;;;;;;;0.00;0.00;;;;;4.96;95.83;99468.56;4810407;29;45690;-86
2021/12/05 04:43:37;;;;;;;;;0.00;0.00;;;;;5.15;96.18;99491.53;4809240;29;46612;-87
2021/12/05 04:46:06;;;;;;;;;0.00;0.00;;;;;4.77;96.08;99433.56;4792499;29;48197;-87
2021/12/05 04:48:32;;;;;;;;;0.00;0.00;;;;;4.55;95.59;99392.63;4791813;29;45684;-84
2021/12/05 04:50:59;;;;;;;;;0.00;0.00;;;;;5.09;96.05;99486.75;4791781;29;45588;-86
2021/12/05 04:53:27;;;;;;;;;0.00;0.00;;;;;4.66;95.58;99431.66;4792058;29;48433;-87
2021/12/05 04:55:52;;;;;;;;;0.75;0.00;;;;;5.06;95.96;99487.78;4791225;29;47548;-87
2021/12/05 04:58:18;;;;;;;;;0.00;0.00;;;;;4.32;96.20;99380.38;4791253;29;45774;-85
2021/12/05 05:04:12;;;;;;;;;0.00;0.00;;;;;5.03;95.85;99498.34;4807470;29;45680;-86
2021/12/05 05:06:38;;;;;;;;;0.00;0.00;;;;;5.03;96.03;99479.34;4806111;29;46837;-86
2021/12/05 05:09:04;;;;;;;;;0.00;0.00;;;;;4.64;95.98;99413.59;4791046;29;45589;-86
2021/12/05 05:11:30;;;;;;;;;0.25;0.00;;;;;5.06;95.82;99473.97;4790583;29;45662;-86
2021/12/05 05:13:55;;;;;;;;;0.00;0.00;;;;;5.07;96.30;99479.06;4806191;29;47285;-87
2021/12/05 05:16:23;;;;;;;;;0.00;0.00;;;;;4.69;95.72;99413.31;4790371;29;47451;-86
2021/12/05 05:18:55;;;;;;;;;0.00;0.00;;;;;4.62;95.76;99405.09;4790996;29;45723;-85
2021/12/05 05:21:40;;;;;;;;;0.00;0.00;;;;;5.09;95.64;99471.16;4807400;29;45576;-87
2021/12/05 05:50:36;;;;;;;;;0.00;0.00;;;;;5.06;96.12;99461.00;4733205;30;45882;-87
2021/12/05 05:53:03;;;;;;;;;0.00;0.00;;;;;5.27;95.86;99485.53;4733000;30;45607;-86
2021/12/05 05:55:29;;;;;;;;;0.00;0.00;;;;;5.04;95.92;99455.06;4735031;30;47880;-87
2021/12/05 06:00:34;;;;;;;;;1.00;0.00;;;;;5.29;95.91;99462.88;4736400;30;45818;-88
2021/12/05 06:05:52;;;;;;;;;0.00;0.00;;;;;5.38;95.64;99475.25;4733541;30;45665;-86
2021/12/05 06:08:21;;;;;;;;;0.00;0.00;;;;;5.38;95.59;99469.22;4717808;30;47183;-88
2021/12/05 06:10:47;;;;;;;;;0.00;0.00;;;;;5.12;96.00;99424.25;4732382;30;45899;-86
2021/12/05 06:13:14;;;;;;;;;0.00;0.00;;;;;5.34;95.81;99455.63;4761362;29;45788;-86
2021/12/05 06:15:39;;;;;;;;;0.00;0.00;;;;;5.14;95.79;99419.78;4790186;29;47171;-87
2021/12/05 06:18:05;;;;;;;;;0.00;0.00;;;;;5.45;95.90;99457.47;4806644;29;45771;-86
2021/12/05 06:20:31;;;;;;;;;0.00;0.00;;;;;5.12;95.99;99403.50;4807428;29;46207;-87
2021/12/05 06:22:57;;;;;;;;;0.00;0.00;;;;;5.27;95.92;99420.63;4808113;29;45597;-87
2021/12/05 06:25:27;;;;;;;;;0.00;0.00;;;;;5.51;96.08;99461.44;4792286;29;47062;-86
2021/12/05 06:28:03;;;;;;;;;1.00;0.00;;;;;5.19;95.80;99403.88;4792144;29;46125;-89
2021/12/05 06:31:09;;;;;;;;;0.00;0.00;;;;;5.54;96.05;99475.03;4808694;29;45794;-86
2021/12/05 06:47:09;;;;;;;;;0.00;0.00;;;;;5.28;96.05;99430.06;4749831;29;45614;-87
2021/12/05 06:49:35;;;;;;;;;0.00;0.00;;;;;5.19;96.05;99416.84;4750120;29;46463;-86
2021/12/05 06:52:02;;;;;;;;;0.00;0.00;;;;;5.33;96.14;99430.59;4749198;29;45723;-87
2021/12/05 06:54:27;;;;;;;;;0.00;0.00;;;;;5.53;96.12;99459.53;4735360;29;45923;-86
2021/12/05 06:56:53;;;;;;;;;0.00;0.00;;;;;5.53;95.84;99473.34;4734627;29;48047;-86
2021/12/05 06:59:18;;;;;;;;;0.25;0.00;;;;;5.56;95.91;99477.53;4751959;29;48293;-83
2021/12/05 07:01:44;;;;;;;;;0.00;0.00;;;;;5.57;95.99;99480.00;4739406;29;45712;-85
2021/12/05 07:04:34;;;;;;;;;0.00;0.00;;;;;5.28;95.63;99448.25;4739533;29;45598;-86
2021/12/05 07:06:55;;;;;;;;;0.25;0.00;;;;;5.58;95.91;99499.00;4754226;29;45690;-87
2021/12/05 07:09:22;;;;;;;;;0.00;0.00;;;;;5.31;95.65;99471.38;4750271;29;47581;-87
2021/12/05 07:14:36;;;;;;;;;0.00;0.00;;;;;5.51;96.07;99495.19;4752767;29;45869;-86
2021/12/05 07:17:08;;;;;;;;;0.75;0.00;;;;;5.19;96.15;99442.81;4724350;29;47840;-85
2021/12/05 07:22:22;;;;;;;;;0.75;0.00;;;;;5.47;96.20;99494.56;4805307;29;45791;-85
2021/12/05 07:24:53;;;;;;;;;0.00;0.00;;;;;5.45;96.04;99480.84;4789575;29;45910;-86
2021/12/05 07:42:42;;;;;;;;;0.00;0.00;;;;;5.42;96.16;99496.63;4817443;29;46088;-88
2021/12/05 07:45:17;;;;;;;;;0.00;0.00;;;;;4.71;95.82;99362.16;4795980;29;45656;-84
2021/12/05 07:47:49;;;;;;;;;0.00;0.00;;;;;5.06;96.14;99416.88;4813697;29;45769;-86
2021/12/05 07:50:20;;;;;;;;;1.00;0.00;;;;;5.24;96.10;99461.50;4810591;29;45474;-84
2021/12/05 07:53:03;;;;;;;;;0.75;0.00;;;;;5.43;96.23;99483.56;4813928;29;45702;-89
2021/12/05 07:55:36;;;;;;;;;0.00;0.00;;;;;5.21;95.99;99459.97;4807960;29;45585;-75
2021/12/05 08:00:54;;;;;;;;;0.00;0.00;;;;;5.43;95.91;99480.13;4806481;29;46243;-77
2021/12/05 08:14:41;;;;;;;;;1.00;0.00;;;;;5.59;95.77;99506.72;4750821;29;46095;-76
2021/12/05 08:17:13;;;;;;;;;0.00;0.00;;;;;5.59;95.90;99482.50;4750927;29;45674;-77
2021/12/05 08:19:40;;;;;;;;;1.50;0.00;;;;;5.62;95.75;99503.88;4750837;29;46027;-77
2021/12/05 08:22:05;;;;;;;;;0.00;0.00;;;;;5.64;95.87;99509.00;4750697;29;45664;-77
2021/12/05 08:24:32;;;;;;;;;1.00;1.00;;;;;5.67;96.08;99491.41;4750646;29;45706;-78
2021/12/05 08:26:58;;;;;;;;;0.25;0.25;;;;;5.73;95.75;99495.34;4765383;29;45787;-78
2021/12/05 08:29:40;;;;;;;;;0.50;0.00;;;;;5.76;96.19;99510.75;4750330;29;45938;-77
2021/12/05 08:35:11;;;;;;;;;0.00;0.00;;;;;5.84;95.89;99496.28;4750821;29;46033;-77
2021/12/05 10:09:42;;;;;;;;;2.00;1.75;;;;;6.80;95.95;99553.66;4805266;29;45614;-78
2021/12/05 10:38:16;;;;;;;;;1.25;1.25;;;;;7.08;95.52;99548.91;4766130;29;46089;-77
2021/12/05 10:40:54;;;;;;;;;4.00;3.00;;;;;7.17;95.54;99550.03;4750952;29;45849;-76
2021/12/05 10:43:23;;;;;;;;;1.00;1.00;;;;;7.11;95.55;99537.47;4766476;29;45938;-77
2021/12/05 10:49:02;;;;;;;;;1.00;1.00;;;;;7.28;95.69;99550.06;4712684;30;46343;-77
2021/12/05 10:51:31;;;;;;;;;1.25;0.50;;;;;7.32;95.48;99535.88;4697887;30;45791;-76
2021/12/05 10:54:00;;;;;;;;;0.50;0.25;;;;;7.27;95.60;99544.97;4712825;30;45635;-77
2021/12/05 10:56:34;;;;;;;;;1.00;1.00;;;;;7.33;95.62;99545.34;4712696;30;46489;-75
2021/12/05 10:59:09;;;;;;;;;1.75;1.25;;;;;7.32;95.86;99538.47;4712958;30;46165;-75
2021/12/05 11:04:56;;;;;;;;;2.00;2.00;;;;;7.29;95.45;99546.50;4712858;30;45810;-77
2021/12/05 11:07:23;;;;;;;;;0.75;0.00;;;;;7.33;95.38;99534.09;4712560;30;47231;-77
2021/12/05 11:09:57;;;;;;;;;1.00;1.00;;;;;7.34;95.45;99528.75;4712915;30;46071;-77
2021/12/05 11:12:27;;;;;;;;;4.00;1.00;;;;;7.35;95.19;99535.63;4712528;30;45903;-77
2021/12/05 11:14:56;;;;;;;;;2.00;1.00;;;;;7.33;95.25;99513.25;4712649;30;45861;-76
2021/12/05 11:20:45;;;;;;;;;1.50;1.00;;;;;7.42;95.38;99525.56;4712348;30;46039;-77
2021/12/05 11:23:17;;;;;;;;;2.00;1.00;;;;;7.44;95.16;99529.75;4697805;30;46425;-78
2021/12/05 11:25:44;;;;;;;;;1.00;1.00;;;;;7.43;95.21;99528.06;4757552;29;45857;-75
2021/12/05 11:28:11;;;;;;;;;0.00;0.00;;;;;7.48;95.49;99523.34;4806959;29;46844;-76
2021/12/05 11:30:40;;;;;;;;;1.25;1.00;;;;;7.47;95.21;99526.88;4807060;29;46421;-75
2021/12/05 11:36:32;;;;;;;;;2.50;1.00;;;;;7.38;95.35;99511.97;4806408;29;45641;-76
2021/12/05 11:38:59;;;;;;;;;2.75;1.00;;;;;7.42;95.62;99531.63;4807939;29;46664;-76
2021/12/05 11:41:24;;;;;;;;;1.00;1.00;;;;;7.41;95.59;99526.50;4807015;29;47394;-77
2021/12/05 11:43:58;;;;;;;;;1.00;0.00;;;;;7.35;95.51;99538.22;4790198;29;45603;-74
2021/12/05 11:53:06;;;;;;;;;1.25;0.25;;;;;7.02;96.06;99536.34;4806929;29;45767;-78
2021/12/05 11:55:32;;;;;;;;;0.50;0.50;;;;;6.90;96.15;99526.03;4806757;29;45640;-78
2021/12/05 11:57:59;;;;;;;;;1.00;0.50;;;;;6.97;96.31;99551.47;4807319;29;45487;-77
2021/12/05 12:00:26;;;;;;;;;0.75;0.50;;;;;6.87;96.18;99566.13;4806541;29;47457;-78
2021/12/05 12:02:53;;;;;;;;;1.00;1.00;;;;;6.82;96.71;99588.22;4807244;29;46254;-78
2021/12/05 12:05:24;;;;;;;;;0.00;0.00;;;;;6.67;96.65;99592.75;4807511;29;45607;-76
2021/12/05 12:07:53;;;;;;;;;1.00;1.00;;;;;6.53;96.78;99591.09;4806781;29;45615;-78
2021/12/05 12:10:44;;;;;;;;;0.00;0.00;;;;;6.42;96.54;99595.44;4806406;29;45574;-78
2021/12/05 12:13:13;;;;;;;;;1.00;1.00;;;;;6.32;97.07;99588.25;4768268;29;46166;-78
2021/12/05 12:15:42;;;;;;;;;0.25;0.00;;;;;6.25;96.70;99568.84;4768398;29;45727;-77
2021/12/05 12:18:25;;;;;;;;;0.25;0.25;;;;;6.21;97.07;99579.53;4768242;29;45748;-78
2021/12/05 12:20:51;;;;;;;;;0.00;0.00;;;;;6.15;96.94;99580.81;4767815;29;47545;-77
2021/12/05 12:23:18;;;;;;;;;0.00;0.00;;;;;6.08;96.71;99589.13;4768205;29;46330;-75
2021/12/05 12:25:47;;;;;;;;;1.00;1.00;;;;;6.04;97.05;99587.69;4767843;29;45610;-76
2021/12/05 12:28:13;;;;;;;;;2.00;1.00;;;;;6.01;97.03;99582.69;4768238;29;45676;-76
2021/12/05 12:30:48;;;;;;;;;0.00;0.00;;;;;5.91;96.97;99574.69;4767436;29;46677;-76
2021/12/05 12:33:20;;;;;;;;;0.00;0.00;;;;;5.83;97.25;99577.78;4767701;29;46250;-76
2021/12/05 12:35:49;;;;;;;;;0.75;0.25;;;;;5.80;97.49;99593.59;4767714;29;45951;-78
2021/12/05 12:38:21;;;;;;;;;1.00;1.00;;;;;5.73;97.32;99597.53;4767252;29;45811;-77
2021/12/05 12:40:58;;;;;;;;;0.00;0.00;;;;;5.71;97.28;99590.78;4767274;29;46829;-77
2021/12/05 12:43:35;;;;;;;;;0.00;0.00;;;;;5.67;97.09;99590.16;4752594;29;46360;-76
2021/12/05 12:46:15;;;;;;;;;0.75;0.75;;;;;5.65;97.14;99593.78;4767852;29;45723;-77
2021/12/05 12:48:41;;;;;;;;;1.00;0.50;;;;;5.63;97.17;99593.06;4768067;29;45536;-77
2021/12/05 12:51:06;;;;;;;;;0.00;0.00;;;;;5.46;97.04;99576.84;4802047;29;47405;-77
2021/12/05 12:53:38;;;;;;;;;2.00;1.00;;;;;5.61;97.14;99590.59;4806011;29;46456;-78
2021/12/05 12:56:19;;;;;;;;;1.00;1.00;;;;;5.56;97.13;99605.63;4805940;29;45625;-76
2021/12/05 12:58:48;;;;;;;;;1.00;0.75;;;;;5.62;97.57;99617.38;4806485;29;45614;-78
2021/12/05 13:12:49;;;;;;;;;1.50;1.00;;;;;5.68;97.15;99610.00;4807208;29;45607;-78
2021/12/05 13:15:20;;;;;;;;;1.00;1.00;;;;;5.70;97.56;99610.75;4805940;29;46257;-79
2021/12/05 13:21:17;;;;;;;;;1.00;1.00;;;;;5.76;97.34;99605.13;4805643;29;45557;-77
2021/12/05 13:23:50;;;;;;;;;4.00;2.00;;;;;5.84;97.42;99620.19;4805672;29;46432;-77
2021/12/05 13:26:19;;;;;;;;;2.00;1.75;;;;;5.89;97.52;99623.34;4805466;29;46193;-77
2021/12/05 13:29:16;;;;;;;;;2.00;2.00;;;;;5.92;97.14;99632.72;4805752;29;45609;-77
2021/12/05 13:38:51;;;;;;;;;5.00;4.25;;;;;6.03;97.01;99627.63;4731320;30;45917;-77
2021/12/05 13:41:19;;;;;;;;;4.75;4.00;;;;;6.00;97.23;99623.44;4731508;30;46063;-78
2021/12/05 13:43:58;;;;;;;;;3.50;3.50;;;;;6.00;97.25;99613.06;4731723;30;45583;-77
2021/12/05 13:46:38;;;;;;;;;2.00;2.00;;;;;6.14;97.38;99636.34;4716638;30;47109;-78
2021/12/05 13:52:39;;;;;;;;;0.00;0.00;;;;;6.28;97.05;99622.38;4731617;30;45672;-79
2021/12/05 13:55:46;;;;;;;;;4.00;4.00;;;;;6.36;97.22;99629.69;4734628;30;45969;-78
2021/12/05 13:58:34;;;;;;;;;4.00;3.50;;;;;6.44;96.96;99632.56;4698250;30;46335;-78
2021/12/05 14:01:01;;;;;;;;;1.75;1.75;;;;;6.48;97.07;99634.84;4698012;30;46449;-77
2021/12/05 14:03:52;;;;;;;;;1.00;1.00;;;;;6.54;97.33;99643.97;4699294;30;45590;-79
2021/12/05 14:06:40;;;;;;;;;1.00;1.00;;;;;6.57;96.99;99647.22;4664535;30;45641;-78
2021/12/05 14:09:30;;;;;;;;;2.00;2.00;;;;;6.59;97.27;99653.13;4684715;30;46638;-77
2021/12/05 14:12:13;;;;;;;;;1.00;1.00;;;;;6.58;97.17;99645.47;4697676;30;46436;-78
2021/12/05 14:14:47;;;;;;;;;4.00;2.00;;;;;6.65;97.25;99651.88;4696176;30;45918;-78
2021/12/05 14:20:34;;;;;;;;;1.25;1.25;;;;;6.68;97.25;99669.88;4695701;30;45656;-76
2021/12/05 14:23:04;;;;;;;;;4.00;4.00;;;;;6.73;97.11;99663.44;4696091;30;46462;-75
2021/12/05 14:25:32;;;;;;;;;2.00;1.75;;;;;6.75;97.21;99656.31;4695889;30;45661;-77
2021/12/05 14:28:01;;;;;;;;;3.00;2.00;;;;;6.77;97.31;99676.22;4695996;30;45657;-77
2021/12/05 14:30:30;;;;;;;;;2.25;2.25;;;;;6.78;97.41;99668.31;4695456;30;46934;-78
2021/12/05 14:36:24;;;;;;;;;1.00;1.00;;;;;6.75;96.98;99679.75;4730857;29;45826;-78
2021/12/05 14:39:25;;;;;;;;;4.00;2.00;;;;;6.76;97.35;99685.78;4731449;30;45854;-78
2021/12/05 14:41:56;;;;;;;;;1.75;1.75;;;;;6.77;97.37;99690.06;4727271;30;45530;-77
2021/12/05 14:44:22;;;;;;;;;1.00;1.00;;;;;6.80;97.18;99691.63;4800702;29;45757;-78
2021/12/05 14:47:02;;;;;;;;;2.50;2.00;;;;;6.83;97.21;99728.69;4788751;29;45671;-77
2021/12/05 14:52:52;;;;;;;;;2.00;1.25;;;;;6.85;97.38;99703.38;4805083;29;45584;-76
2021/12/05 14:55:20;;;;;;;;;1.00;1.00;;;;;6.88;97.25;99700.56;4805083;29;47117;-76
2021/12/05 14:57:51;;;;;;;;;1.50;1.00;;;;;6.89;97.34;99720.44;4804636;29;45952;-76
2021/12/05 15:00:24;;;;;;;;;2.00;1.75;;;;;6.91;97.28;99734.16;4804907;29;45545;-78
2021/12/05 15:03:21;;;;;;;;;1.25;1.25;;;;;6.88;97.41;99710.97;4807702;29;45781;-77
2021/12/05 15:05:51;;;;;;;;;2.25;1.75;;;;;6.84;97.54;99709.53;4751594;29;46092;-76
2021/12/05 15:08:20;;;;;;;;;3.00;2.00;;;;;6.93;97.25;99719.28;4751601;29;45768;-76
2021/12/05 15:10:50;;;;;;;;;1.25;1.25;;;;;6.99;97.05;99736.25;4751330;29;45613;-77
2021/12/05 15:13:17;;;;;;;;;5.00;3.00;;;;;7.02;97.21;99729.03;4751379;29;46769;-77
2021/12/05 15:15:43;;;;;;;;;5.00;5.00;;;;;7.06;97.30;99737.50;4751453;29;46176;-76
2021/12/05 15:18:17;;;;;;;;;3.25;2.00;;;;;7.10;97.28;99742.38;4751317;29;45636;-77
2021/12/05 15:20:46;;;;;;;;;4.50;3.50;;;;;7.08;97.12;99730.38;4750909;29;45861;-76
2021/12/05 15:23:11;;;;;;;;;3.75;3.75;;;;;7.13;97.07;99751.72;4751245;29;46470;-76
2021/12/05 15:25:39;;;;;;;;;2.00;1.25;;;;;7.16;97.01;99748.91;4751279;29;45678;-78
2021/12/05 15:28:08;;;;;;;;;3.25;3.25;;;;;7.18;97.22;99753.06;4751050;29;45875;-77
2021/12/05 15:30:37;;;;;;;;;3.25;3.25;;;;;7.20;97.09;99759.94;4751021;29;45813;-76
2021/12/05 15:33:15;;;;;;;;;2.00;2.00;;;;;7.20;96.87;99765.16;4751298;29;45728;-78
2021/12/05 15:35:42;;;;;;;;;2.00;2.00;;;;;7.16;97.19;99777.56;4750824;29;47120;-78
2021/12/05 15:38:12;;;;;;;;;1.75;1.75;;;;;7.23;96.99;99775.38;4750902;29;45824;-77
2021/12/05 15:40:42;;;;;;;;;2.25;1.00;;;;;7.24;97.05;99785.66;4750250;29;45973;-76
2021/12/05 15:43:15;;;;;;;;;2.00;1.75;;;;;7.24;97.24;99793.47;4785812;29;47104;-77
2021/12/05 15:45:42;;;;;;;;;1.50;1.25;;;;;7.21;97.33;99785.06;4806155;29;46015;-77
2021/12/05 15:48:08;;;;;;;;;4.50;2.00;;;;;7.24;97.31;99819.53;4806409;29;45598;-78
2021/12/05 15:50:37;;;;;;;;;4.75;1.00;;;;;7.16;97.38;99806.22;4805805;29;45856;-76
2021/12/05 15:53:10;;;;;;;;;1.00;1.00;;;;;7.21;97.37;99816.31;4805798;29;47894;-78
2021/12/05 15:55:43;;;;;;;;;1.25;1.25;;;;;7.19;97.48;99813.81;4805926;29;46157;-77
2021/12/05 15:58:20;;;;;;;;;2.25;2.00;;;;;7.18;97.42;99822.56;4806239;29;45885;-77
2021/12/05 16:00:59;;;;;;;;;1.00;1.00;;;;;7.17;97.30;99826.13;4789327;29;46021;-76
2021/12/05 16:03:37;;;;;;;;;1.00;1.00;;;;;7.14;97.35;99828.91;4805668;29;46399;-77
2021/12/05 16:06:04;;;;;;;;;2.00;1.00;;;;;7.10;97.61;99832.69;4805648;29;45498;-76
2021/12/05 16:08:31;;;;;;;;;4.00;2.50;;;;;7.04;97.57;99831.34;4805446;29;45620;-77
2021/12/05 16:10:59;;;;;;;;;1.75;1.00;;;;;7.10;97.44;99845.72;4805320;29;46053;-76
2021/12/05 16:13:34;;;;;;;;;4.00;2.00;;;;;7.10;97.31;99859.56;4804648;29;45595;-76
2021/12/05 16:16:27;;;;;;;;;2.25;2.00;;;;;7.12;97.40;99856.88;4805325;29;47368;-75
2021/12/05 16:18:56;;;;;;;;;2.00;2.00;;;;;7.08;97.39;99848.41;4803984;29;45884;-76
2021/12/05 16:21:26;;;;;;;;;2.00;2.00;;;;;7.11;97.47;99869.06;4805620;29;45767;-77
2021/12/05 16:23:52;;;;;;;;;2.25;1.50;;;;;7.11;97.36;99876.03;4805492;29;46495;-76
2021/12/05 16:26:23;;;;;;;;;2.50;2.00;;;;;7.05;97.13;99864.25;4805346;29;47212;-75
2021/12/05 16:29:01;;;;;;;;;2.00;2.00;;;;;7.11;97.64;99882.06;4805772;29;45682;-76
2021/12/05 16:31:30;;;;;;;;;3.25;3.00;;;;;7.18;97.65;99886.88;4805003;29;45820;-76
2021/12/05 16:33:57;;;;;;;;;3.50;2.75;;;;;7.18;97.47;99913.72;4805222;29;46781;-76
2021/12/05 16:36:32;;;;;;;;;3.75;2.00;;;;;7.20;97.47;99890.19;4788875;29;46331;-77
2021/12/05 16:39:12;;;;;;;;;6.75;5.00;;;;;7.12;97.54;99894.16;4805745;29;45729;-76
2021/12/05 16:41:47;;;;;;;;;5.00;3.25;;;;;7.22;97.67;99902.19;4805423;29;45812;-75
2021/12/05 16:44:16;;;;;;;;;3.00;3.00;;;;;7.18;97.60;99893.72;4805192;29;45695;-76
2021/12/05 16:46:47;;;;;;;;;3.25;3.00;;;;;7.20;97.70;99904.03;4805004;29;47069;-75
2021/12/05 16:49:18;;;;;;;;;2.25;2.25;;;;;7.18;97.66;99904.13;4804986;29;45725;-77
2021/12/05 16:51:50;;;;;;;;;5.00;4.00;;;;;7.25;97.68;99921.94;4804953;29;45661;-75
2021/12/05 16:54:18;;;;;;;;;2.00;2.00;;;;;7.24;97.62;99920.28;4804985;29;46880;-76
2021/12/05 16:56:48;;;;;;;;;5.00;3.75;;;;;7.25;97.45;99929.78;4805050;29;46515;-78
2021/12/05 16:59:21;;;;;;;;;5.75;4.00;;;;;7.23;97.69;99936.88;4805388;29;45607;-75
2021/12/05 17:02:05;;;;;;;;;5.50;4.50;;;;;7.18;97.55;99909.34;4805225;29;45569;-78
2021/12/05 17:04:56;;;;;;;;;4.00;4.00;;;;;7.24;97.85;99928.09;4805144;29;46417;-78
2021/12/05 17:07:42;;;;;;;;;4.50;4.00;;;;;7.26;97.74;99927.06;4788536;29;47196;-78
2021/12/05 17:10:30;;;;;;;;;5.75;5.25;;;;;7.22;97.74;99932.59;4804804;29;45702;-76
2021/12/05 17:13:09;;;;;;;;;4.50;2.75;;;;;7.27;97.77;99952.19;4804750;29;45744;-76
2021/12/05 17:15:37;;;;;;;;;4.75;2.00;;;;;7.30;97.64;99940.72;4804614;29;47483;-76
2021/12/05 17:21:21;;;;;;;;;5.25;4.50;;;;;7.23;97.80;99942.91;4804293;29;45840;-77
2021/12/05 17:23:52;;;;;;;;;4.00;4.00;;;;;7.29;97.41;99944.28;4804615;29;45757;-75
2021/12/05 17:26:27;;;;;;;;;7.00;6.00;;;;;7.26;97.55;99949.69;4804230;29;47518;-74
2021/12/05 17:29:17;;;;;;;;;5.00;5.00;;;;;7.30;97.83;99971.97;4804529;29;47097;-76
2021/12/05 17:31:55;;;;;;;;;7.25;4.75;;;;;7.29;97.71;99957.31;4803912;29;45677;-76
2021/12/05 17:37:45;;;;;;;;;4.25;3.50;;;;;7.23;97.56;99963.75;4803981;29;46037;-75
2021/12/05 17:40:11;;;;;;;;;5.25;4.50;;;;;7.29;97.71;99952.91;4803970;29;46906;-77
2021/12/05 17:42:38;;;;;;;;;6.75;5.50;;;;;7.25;97.74;99948.84;4804342;29;45866;-76
2021/12/05 17:45:09;;;;;;;;;5.75;3.25;;;;;7.33;97.69;99982.19;4804642;29;45619;-78
2021/12/05 17:47:35;;;;;;;;;4.00;4.00;;;;;7.24;97.82;99969.78;4804425;29;46683;-77
2021/12/05 17:53:29;;;;;;;;;5.75;3.75;;;;;7.30;97.73;99979.78;4804435;29;45836;-78
2021/12/05 17:56:01;;;;;;;;;4.75;4.75;;;;;7.25;97.77;99968.84;4804815;29;45578;-76
2021/12/05 17:58:50;;;;;;;;;4.50;4.00;;;;;7.32;97.80;99976.16;4804586;29;46440;-77
2021/12/05 18:03:59;;;;;;;;;8.00;7.75;;;;;7.28;97.66;99986.91;4804050;29;45907;-78
2021/12/05 18:06:25;;;;;;;;;10.00;9.25;;;;;7.29;97.65;99988.56;4804112;29;45887;-76
2021/12/05 18:08:51;;;;;;;;;12.75;11.25;;;;;7.29;97.71;99997.19;4804399;29;46841;-79
2021/12/05 18:11:24;;;;;;;;;6.00;5.00;;;;;7.29;97.64;99983.34;4803797;29;47111;-75
2021/12/05 18:13:54;;;;;;;;;9.00;7.25;;;;;7.31;97.70;99992.72;4803949;29;45775;-77
2021/12/05 18:16:25;;;;;;;;;14.00;9.00;;;;;7.31;97.63;99995.31;4804768;29;45716;-76
2021/12/05 18:18:56;;;;;;;;;8.75;7.25;;;;;7.28;97.69;99994.72;4805119;29;46505;-78
2021/12/05 18:21:24;;;;;;;;;9.50;9.50;;;;;7.32;97.76;100004.81;4803921;29;46363;-78
2021/12/05 18:23:50;;;;;;;;;9.00;8.00;;;;;7.32;97.70;100004.81;4805055;29;45830;-78
2021/12/05 18:26:17;;;;;;;;;6.25;5.75;;;;;7.31;97.84;100016.16;4804066;29;45754;-77
2021/12/05 18:28:46;;;;;;;;;10.75;6.25;;;;;7.27;97.73;100009.50;4803755;29;47512;-77
2021/12/05 18:31:17;;;;;;;;;8.00;8.00;;;;;7.27;97.82;100012.09;4803415;29;46690;-77
2021/12/05 18:33:43;;;;;;;;;9.00;8.00;;;;;7.28;97.78;100018.16;4803924;29;45809;-77
2021/12/05 18:36:11;;;;;;;;;10.50;9.75;;;;;7.30;97.67;100034.50;4803283;29;45566;-76
2021/12/05 18:38:38;;;;;;;;;8.50;6.50;;;;;7.29;97.68;100028.44;4803710;29;47908;-78
2021/12/05 18:41:09;;;;;;;;;9.75;8.75;;;;;7.27;97.89;100029.50;4802882;29;46206;-77
2021/12/05 18:43:38;;;;;;;;;14.50;9.75;;;;;7.26;97.74;100026.06;4804150;29;45762;-78
2021/12/05 18:46:05;;;;;;;;;10.50;9.50;;;;;7.20;97.88;100018.66;4803605;29;45763;-75
2021/12/05 18:48:30;;;;;;;;;16.50;14.00;;;;;7.30;97.74;100035.34;4803367;29;46546;-76
2021/12/05 18:54:18;;;;;;;;;17.25;14.00;;;;;7.32;97.71;100035.25;4803588;29;45966;-78
2021/12/05 18:56:45;;;;;;;;;16.00;15.50;;;;;7.29;97.89;100043.28;4803651;29;45949;-78